Norwood, North Carolina
Current Conditions -  °F | °C
As of 3:55 PM on Tuesday 27 Jan 2015 (Local Time) from KVUJ Reporting Station
Clear Clear  
Wind Chill: 41°   Ceiling: Unl
Heat Index: 45°   Visibility: 10mi
Dew Point: 11°   Wind: 7mph
Humidity: 25%   Direction: 360°N
Pressure: 29.88"   Gusts: 18mph
Location:  35.22°N, 80.12°W
Report Text: KVUJ 272055Z AUTO 36006G16KT 10SM CLR 07/M12 A2988 RMK AO2 T00711118
Loading
Personal Weather Stations






























Interactive Weather Map New forecast layout! Learn more

10-Day Weather Forecast

Advertisements
Track Severe Weather on mobile